Clarksville, Delaware
Current Conditions -  °F | °C
As of 12:53 PM on Friday 19 Dec 2014 (Local Time) from KOXB Reporting Station
Overcast Overcast  
Wind Chill: 31°   Ceiling: 3200
Heat Index: 39°   Visibility: 10mi
Dew Point: 26°   Wind: 13mph
Humidity: 60%   Direction: 340°NNW
Pressure: 30.1"   Gusts: NA
Location:  38.5606°N, 75.0865°W
Report Text: KOXB 191753Z AUTO 34011KT 10SM OVC032 04/M03 A3010 RMK AO2 SLP191 T00391033 10039 20006 58014 TSNO
Loading
Personal Weather Stations






























Interactive Weather Map New forecast layout! Learn more

10-Day Weather Forecast

Advertisements
Track Severe Weather on mobile